Parkman, WY (82838)

5:08 PM MDT on July 25, 2014 (GMT -0600)
KWYSHERI2 Elev 3828 ft | 44.81 °N, 106.98 °W | Change Station

Current weather conditions updated 5 minutes ago

Clear
Clear
90.4 °F
Feels Like 86 °F
N
2.0
Wind Variable Wind from NE
Gusts 3.0 mph

Tomorrow is forecast to be Much Cooler than today.

Today
High -- | Low -- °F
--% Chance of Precip.
Yesterday
High -- | Low -- °F
Precip. -- in
5:47 AM 8:43 PM
Waning Crescent, 1% visible
Pressure 29.75 in
Visibility 10.0 miles
Clouds Clear
Heat Index 86 °F
Dew Point 35 °F
Humidity 14%
Rainfall 0.00 in
Snow Depth Not available.
UV 5 out of 12
Pollen 6.20 out of 12
Air Quality Not available.
Flu Activity Not available.
METAR KSHR 252253Z AUTO 00000KT 10SM CLR 32/08 A2986 RMK AO2 SLP074 T03170078

More Conditions Fewer Conditions

Pressure 29.75 in
Visibility 10.0 miles
Clouds Clear
Heat Index 86 °F
Dew Point 35 °F
Humidity 14%
Rainfall 0.00 in
Snow Depth Not available.
UV 5 out of 12
Pollen 6.20 out of 12
Air Quality Not available.
Flu Activity Not available.
METAR KSHR 252253Z AUTO 00000KT 10SM CLR 32/08 A2986 RMK AO2 SLP074 T03170078

More Conditions Fewer Conditions

10-Day Weather Forecast

Almanac

Astronomy

Jul. 25, 2014 Rise Set
Actual Time 5:47 AM MDT 8:43 PM MDT
Civil Twilight 5:12 AM MDT 9:18 PM MDT
Nautical Twilight 4:28 AM MDT 10:02 PM MDT
Astronomical Twilight 3:35 AM MDT 10:54 PM MDT
Moon 4:50 AM MDT 7:40 PM MDT
Length of Visible Light 16h 05m
Length of Day
14h 56m
Tomorrow will be 2m 9s shorter.
Waning Crescent, 1% of the Moon is Illuminated
Today
Waning Crescent
Jul 26
New
Aug 3
First Quarter
Aug 10
Full
Aug 17
Last Quarter

Today's Extremes

State Highs State Lows

Community

WunderPhotos

Upload Photos

1,737,436 photos uploaded!

Nearby

Snow Depth

Station Depth Elevation
Casper Mountain 0 in 7850 ft
Gunsight Pass 3 in 9820 ft
Lewis Lake Divide 0 in 7850 ft
Kendall R.S. 0 in 7740 ft
Loomis Park 0 in 8240 ft

Earthquake Activity

City Distance Mag. Time & Date
No recent earthquake activity has been reported nearby.
Minimum magnitude displayed is 2.5.

Coastal Water Temperatures

Place Temperature
No Stations Reporting

Nearby Weather Stations

Station Location Temp. Heat Index Dew Point Humidity Wind Precip. Elev Updated Type
Sheridan, WY 90.4 °F 86 °F 35 °F 14% NE  at  2.0 mph 0.00 in / hr 3828 ft 5:02 PM MDT Normal
North Airport Area, Sheridan, WY 89.2 °F 87 °F 53 °F 29% WNW  at  1.7 mph - / hr 3917 ft 5:06 PM MDT Normal
Sheridan, WY 88.8 °F 85 °F 41 °F 19% East  at  3.0 mph 0.00 in / hr 3860 ft 5:08 PM MDT Rapid Fire
HADS RAPID CREEK (RAIN) NEAR BIG HORN WY, Wolf, WY 73 °F 71 °F - - North  at  - 0.00 in / hr 7048 ft 3:30 PM MDT MADIS
RAWS BURGESS WY, Wolf, WY 73 °F 74 °F 24 °F 16% West  at  22 mph 0.00 in / hr 7743 ft 4:04 PM MDT MADIS
HADS WEST FORK BIG GOOSE CREEK NEAR B WY, Wolf, WY 70 °F - - - North  at  - 0.00 in / hr 8399 ft 3:45 PM MDT MADIS

Show More Stations Show Fewer Stations